createdAt,value
2019-04-07T00:02:13.138Z,60.19
2019-04-07T00:04:42.985Z,60.35
2019-04-07T00:07:13.838Z,60.35
2019-04-07T00:09:43.663Z,60.32
2019-04-07T00:12:13.783Z,60.39
2019-04-07T00:14:43.741Z,60.63
2019-04-07T00:17:13.808Z,60.47
2019-04-07T00:19:43.649Z,60.68
2019-04-07T00:22:13.388Z,60.33
2019-04-07T00:24:42.891Z,60.41
2019-04-07T00:27:12.292Z,60.65
2019-04-07T00:29:41.733Z,60.70
2019-04-07T00:32:11.296Z,60.86
2019-04-07T00:34:41.334Z,60.87
2019-04-07T00:37:10.835Z,60.79
2019-04-07T00:39:40.234Z,60.86
2019-04-07T00:42:09.620Z,61.08
2019-04-07T00:44:39.039Z,61.32
2019-04-07T00:47:08.417Z,61.45
2019-04-07T00:49:37.794Z,61.43
2019-04-07T00:52:08.300Z,61.58
2019-04-07T00:54:38.044Z,61.70
2019-04-07T00:57:07.480Z,62.30
2019-04-07T00:59:36.873Z,62.45
2019-04-07T01:02:06.926Z,62.37
2019-04-07T01:04:36.549Z,62.33
2019-04-07T01:07:05.918Z,62.23
2019-04-07T01:09:35.333Z,62.22
2019-04-07T01:12:04.969Z,62.76
2019-04-07T01:14:34.465Z,62.85
2019-04-07T01:17:04.629Z,62.76
2019-04-07T01:19:34.408Z,63.40
2019-04-07T01:22:03.975Z,63.25
2019-04-07T01:24:33.366Z,63.38
2019-04-07T01:27:02.886Z,63.31
2019-04-07T01:29:32.295Z,63.36
2019-04-07T01:32:01.676Z,63.45
2019-04-07T01:34:31.547Z,63.82
2019-04-07T01:37:01.067Z,63.94
2019-04-07T01:39:30.653Z,63.91
2019-04-07T01:42:25.496Z,64.42
2019-04-07T01:45:18.193Z,64.46
2019-04-07T01:47:56.865Z,64.73
2019-04-07T01:50:43.088Z,64.72
2019-04-07T01:53:20.164Z,65.00
2019-04-07T01:56:09.637Z,65.00
2019-04-07T01:59:07.374Z,65.26
2019-04-07T02:01:45.115Z,65.16
2019-04-07T02:04:42.517Z,64.88
2019-04-07T02:07:34.741Z,64.69
2019-04-07T02:10:15.159Z,64.59
2019-04-07T02:13:06.417Z,64.56
2019-04-07T02:16:03.976Z,64.78
2019-04-07T02:18:43.223Z,64.78
2019-04-07T02:21:27.388Z,65.03
2019-04-07T02:24:14.497Z,65.39
2019-04-07T02:27:02.815Z,65.05
2019-04-07T02:29:40.771Z,65.34
2019-04-07T02:32:27.903Z,65.42
2019-04-07T02:35:19.017Z,65.56
2019-04-07T02:37:59.473Z,65.56
2019-04-07T02:40:47.297Z,65.37
2019-04-07T02:43:42.477Z,65.55
2019-04-07T02:46:44.115Z,66.05
2019-04-07T02:49:39.386Z,66.05
2019-04-07T02:52:26.880Z,64.57
2019-04-07T02:55:21.880Z,64.57
2019-04-07T02:58:06.592Z,65.12
2019-04-07T03:00:57.894Z,65.60
2019-04-07T03:04:01.955Z,65.60
2019-04-07T03:06:52.441Z,65.78
2019-04-07T03:09:28.348Z,65.41
2019-04-07T03:12:10.456Z,65.52
2019-04-07T03:15:05.043Z,65.47
2019-04-07T03:17:43.826Z,65.47
2019-04-07T03:20:32.565Z,66.07
2019-04-07T03:23:18.296Z,65.71
2019-04-07T03:26:07.804Z,65.84
2019-04-07T03:28:49.446Z,65.23
2019-04-07T03:31:34.359Z,65.54
2019-04-07T03:34:25.349Z,65.54
2019-04-07T03:37:29.716Z,66.63
2019-04-07T03:40:18.367Z,66.63
2019-04-07T03:42:59.356Z,65.81
2019-04-07T03:45:43.631Z,66.56
2019-04-07T03:48:28.345Z,66.56
2019-04-07T03:51:06.790Z,66.71
2019-04-07T03:53:54.126Z,66.53
2019-04-07T03:56:51.816Z,66.53
2019-04-07T03:59:40.528Z,65.96
2019-04-07T04:02:44.406Z,66.13
2019-04-07T04:05:42.111Z,66.13
2019-04-07T04:08:40.142Z,66.15
2019-04-07T04:11:34.853Z,66.04
2019-04-07T04:14:09.269Z,66.31
2019-04-07T04:16:42.954Z,66.07
2019-04-07T04:19:12.990Z,66.07
2019-04-07T04:21:43.595Z,66.91
2019-04-07T04:24:14.373Z,66.91
2019-04-07T04:26:44.138Z,66.02
2019-04-07T04:29:13.747Z,65.87
2019-04-07T04:31:43.437Z,66.18
2019-04-07T04:34:13.935Z,66.20
2019-04-07T04:36:43.431Z,66.40
2019-04-07T04:39:13.085Z,66.49
2019-04-07T04:41:44.782Z,66.79
2019-04-07T04:44:14.328Z,66.79
2019-04-07T04:46:43.725Z,67.42
2019-04-07T04:49:13.562Z,66.23
2019-04-07T04:51:43.111Z,66.23
2019-04-07T04:54:12.675Z,66.43
2019-04-07T04:56:42.452Z,66.67
2019-04-07T04:59:12.953Z,66.57
2019-04-07T05:01:42.353Z,66.78
2019-04-07T05:04:12.587Z,66.96
2019-04-07T05:06:42.312Z,67.16
2019-04-07T05:09:12.320Z,67.28
2019-04-07T05:11:41.917Z,67.74
2019-04-07T05:14:11.439Z,67.54
2019-04-07T05:16:40.761Z,67.28
2019-04-07T05:19:10.125Z,67.53
2019-04-07T05:21:39.528Z,67.53
2019-04-07T05:24:09.294Z,67.87
2019-04-07T05:26:39.703Z,67.43
2019-04-07T05:29:09.617Z,67.30
2019-04-07T05:31:39.022Z,67.36
2019-04-07T05:34:08.391Z,67.68
2019-04-07T05:36:37.971Z,67.68
2019-04-07T05:39:08.673Z,67.05
2019-04-07T05:41:38.473Z,67.20
2019-04-07T05:44:07.965Z,67.12
2019-04-07T05:46:40.108Z,66.46
2019-04-07T05:49:08.570Z,66.42
2019-04-07T05:51:37.951Z,66.18
2019-04-07T05:54:07.319Z,66.18
2019-04-07T05:56:37.021Z,66.29
2019-04-07T05:59:09.826Z,65.82
2019-04-07T06:01:37.810Z,65.38
2019-04-07T06:04:07.603Z,65.38
2019-04-07T06:06:39.985Z,65.44
2019-04-07T06:09:08.362Z,65.44
2019-04-07T06:11:37.897Z,64.96
2019-04-07T06:14:07.383Z,65.05
2019-04-07T06:16:37.737Z,64.58
2019-04-07T06:19:08.100Z,64.46
2019-04-07T06:21:38.654Z,63.75
2019-04-07T06:24:08.177Z,63.17
2019-04-07T06:26:40.888Z,63.43
2019-04-07T06:29:09.419Z,63.09
2019-04-07T06:31:39.072Z,63.09
2019-04-07T06:34:10.503Z,62.26
2019-04-07T06:36:39.741Z,62.15
2019-04-07T06:39:09.587Z,61.56
2019-04-07T06:41:39.105Z,61.56
2019-04-07T06:44:13.283Z,60.99
2019-04-07T06:46:58.558Z,60.92
2019-04-07T06:49:46.323Z,60.51
2019-04-07T06:52:28.572Z,60.77
2019-04-07T06:55:26.643Z,60.99
2019-04-07T06:58:21.815Z,61.15
2019-04-07T07:01:10.183Z,59.82
2019-04-07T07:03:57.509Z,60.39
2019-04-07T07:06:55.677Z,60.28
2019-04-07T07:09:43.184Z,59.60
2019-04-07T07:12:35.605Z,59.08
2019-04-07T07:15:33.766Z,59.73
2019-04-07T07:18:09.120Z,60.52
2019-04-07T07:21:01.685Z,59.69
2019-04-07T07:23:34.712Z,58.71
2019-04-07T07:26:04.338Z,58.37
2019-04-07T07:28:33.816Z,58.20
2019-04-07T07:31:03.251Z,58.22
2019-04-07T07:33:33.392Z,57.70
2019-04-07T07:36:03.417Z,58.24
2019-04-07T07:38:33.524Z,58.81
2019-04-07T07:41:04.734Z,57.91
2019-04-07T07:43:34.259Z,57.64
2019-04-07T07:46:03.573Z,57.01
2019-04-07T07:48:32.937Z,56.64
2019-04-07T07:51:02.499Z,56.12
2019-04-07T07:53:32.950Z,55.38
2019-04-07T07:56:03.198Z,55.19
2019-04-07T07:58:33.649Z,54.63
2019-04-07T08:01:04.295Z,54.70
2019-04-07T08:03:35.096Z,54.84
2019-04-07T08:06:08.220Z,53.91
2019-04-07T08:08:36.376Z,53.93
2019-04-07T08:11:06.024Z,53.27
2019-04-07T08:13:42.256Z,53.15
2019-04-07T08:16:07.131Z,53.49
2019-04-07T08:18:39.405Z,53.80
2019-04-07T08:21:07.718Z,53.16
2019-04-07T08:23:37.377Z,53.08
2019-04-07T08:26:06.840Z,53.72
2019-04-07T08:28:36.887Z,53.33
2019-04-07T08:31:06.563Z,53.02
2019-04-07T08:33:36.081Z,52.94
2019-04-07T08:36:09.694Z,52.93
2019-04-07T08:38:36.744Z,51.99
2019-04-07T08:41:09.648Z,52.22
2019-04-07T08:43:37.605Z,52.17
2019-04-07T08:46:07.432Z,51.83
2019-04-07T08:48:37.430Z,51.97
2019-04-07T08:51:07.060Z,50.77
2019-04-07T08:53:36.448Z,50.78
2019-04-07T08:56:08.375Z,50.53
2019-04-07T08:58:38.950Z,51.26
2019-04-07T09:01:08.590Z,50.46
2019-04-07T09:03:38.744Z,50.29
2019-04-07T09:06:08.138Z,50.01
2019-04-07T09:08:39.043Z,48.76
2019-04-07T09:11:14.648Z,49.45
2019-04-07T09:13:51.079Z,48.30
2019-04-07T09:16:32.269Z,49.02
2019-04-07T09:19:39.749Z,48.11
2019-04-07T09:22:30.361Z,49.35
2019-04-07T09:25:09.692Z,47.88
2019-04-07T09:27:57.260Z,48.27
2019-04-07T09:30:31.900Z,47.88
2019-04-07T09:33:12.692Z,48.65
2019-04-07T09:36:06.927Z,49.20
2019-04-07T09:39:04.532Z,48.72
2019-04-07T09:41:59.558Z,48.19
2019-04-07T09:44:48.062Z,47.45
2019-04-07T09:47:26.771Z,47.26
2019-04-07T09:50:22.034Z,46.12
2019-04-07T09:53:18.511Z,47.84
2019-04-07T09:56:03.780Z,47.49
2019-04-07T09:58:46.970Z,46.62
2019-04-07T10:01:35.374Z,46.83
2019-04-07T10:04:29.874Z,47.73
2019-04-07T10:07:21.072Z,47.06
2019-04-07T10:10:18.204Z,47.33
2019-04-07T10:13:05.550Z,46.25
2019-04-07T10:15:59.839Z,45.96
2019-04-07T10:18:51.066Z,46.95
2019-04-07T10:21:36.090Z,45.58
2019-04-07T10:24:25.877Z,43.85
2019-04-07T10:27:06.070Z,44.65
2019-04-07T10:30:00.276Z,45.21
2019-04-07T10:32:55.258Z,45.42
2019-04-07T10:35:33.522Z,44.29
2019-04-07T10:38:25.790Z,45.52
2019-04-07T10:41:07.601Z,43.79
2019-04-07T10:44:14.961Z,45.40
2019-04-07T10:46:54.950Z,43.58
2019-04-07T10:49:38.207Z,44.74
2019-04-07T10:52:41.763Z,44.23
2019-04-07T10:55:39.552Z,42.68
2019-04-07T10:58:17.256Z,44.30
2019-04-07T11:01:06.353Z,44.08
2019-04-07T11:03:54.773Z,41.29
2019-04-07T11:06:50.070Z,42.51
2019-04-07T11:09:37.708Z,39.51
2019-04-07T11:12:39.501Z,41.28
2019-04-07T11:15:27.072Z,42.16
2019-04-07T11:18:14.682Z,41.71
2019-04-07T11:21:15.500Z,42.05
2019-04-07T11:24:02.028Z,39.80
2019-04-07T11:27:05.793Z,39.52
2019-04-07T11:29:40.015Z,39.03
2019-04-07T11:32:26.114Z,37.58
2019-04-07T11:35:14.888Z,38.66
2019-04-07T11:37:55.013Z,37.32
2019-04-07T11:40:48.561Z,38.03
2019-04-07T11:43:32.579Z,36.95
2019-04-07T11:46:36.113Z,37.32
2019-04-07T11:49:27.480Z,36.02
2019-04-07T11:52:02.194Z,36.15
2019-04-07T11:54:38.131Z,36.29
2019-04-07T11:57:17.528Z,35.54
2019-04-07T12:00:04.763Z,36.15
2019-04-07T12:02:42.350Z,35.57
2019-04-07T12:05:31.063Z,32.97
2019-04-07T12:08:36.296Z,32.42
2019-04-07T12:11:36.887Z,31.12
2019-04-07T12:14:16.352Z,31.44
2019-04-07T12:17:05.795Z,31.11
2019-04-07T12:20:10.851Z,29.85
2019-04-07T12:22:49.346Z,29.71
2019-04-07T12:25:31.328Z,28.54
2019-04-07T12:28:18.885Z,28.25
2019-04-07T12:30:55.202Z,25.91
2019-04-07T12:33:46.284Z,26.77
2019-04-07T12:36:30.244Z,26.67
2019-04-07T12:39:16.212Z,26.22
2019-04-07T12:41:57.833Z,26.36
2019-04-07T12:44:41.819Z,25.76
2019-04-07T12:47:36.615Z,24.98
2019-04-07T12:50:31.693Z,26.28
2019-04-07T12:53:19.723Z,25.56
2019-04-07T12:56:05.907Z,25.50
2019-04-07T12:59:00.284Z,24.85
2019-04-07T13:01:53.891Z,24.91
2019-04-07T13:04:40.807Z,23.59
2019-04-07T13:07:27.177Z,22.88
2019-04-07T13:10:14.392Z,24.31
2019-04-07T13:13:05.755Z,26.06
2019-04-07T13:15:58.877Z,26.43
2019-04-07T13:18:47.550Z,27.11
2019-04-07T13:21:41.309Z,26.55
2019-04-07T13:24:30.343Z,25.65
2019-04-07T13:27:10.269Z,25.84
2019-04-07T13:29:56.741Z,26.90
2019-04-07T13:32:55.088Z,25.92
2019-04-07T13:35:47.647Z,25.40
2019-04-07T13:38:27.030Z,25.62
2019-04-07T13:41:18.731Z,23.91
2019-04-07T13:44:04.888Z,23.16
2019-04-07T13:46:59.202Z,22.15
2019-04-07T13:49:47.496Z,24.91
2019-04-07T13:52:55.003Z,23.86
2019-04-07T13:55:44.154Z,23.66
2019-04-07T13:58:27.270Z,24.31
2019-04-07T14:01:26.749Z,24.83
2019-04-07T14:04:13.964Z,26.17
2019-04-07T14:07:02.506Z,26.76
2019-04-07T14:09:46.370Z,25.84
2019-04-07T14:12:27.046Z,26.53
2019-04-07T14:15:21.672Z,27.06
2019-04-07T14:18:13.520Z,27.64
2019-04-07T14:21:09.506Z,28.08
2019-04-07T14:23:58.354Z,28.60
2019-04-07T14:26:44.568Z,30.02
2019-04-07T14:29:32.669Z,30.61
2019-04-07T14:32:16.126Z,32.06
2019-04-07T14:35:02.851Z,33.45
2019-04-07T14:37:54.704Z,34.13
2019-04-07T14:40:30.164Z,33.59
2019-04-07T14:43:24.742Z,33.69
2019-04-07T14:46:13.308Z,32.82
2019-04-07T14:49:01.603Z,32.96
2019-04-07T14:51:57.027Z,33.21
2019-04-07T14:54:37.765Z,33.77
2019-04-07T14:57:35.202Z,34.23
2019-04-07T15:00:33.559Z,34.95
2019-04-07T15:03:02.992Z,35.65
2019-04-07T15:05:35.355Z,35.85
2019-04-07T15:08:17.721Z,36.56
2019-04-07T15:10:50.278Z,36.91
2019-04-07T15:13:27.054Z,35.96
2019-04-07T15:15:53.119Z,36.71
2019-04-07T15:18:22.988Z,36.34
2019-04-07T15:20:52.809Z,35.85
2019-04-07T15:23:22.980Z,35.20
2019-04-07T15:25:52.821Z,35.49
2019-04-07T15:28:22.577Z,35.64
2019-04-07T15:30:52.130Z,35.74
2019-04-07T15:33:22.336Z,36.05
2019-04-07T15:35:52.390Z,36.05
2019-04-07T15:38:24.825Z,36.14
2019-04-07T15:40:52.950Z,36.79
2019-04-07T15:43:22.410Z,36.23
2019-04-07T15:45:52.222Z,35.61
2019-04-07T15:48:25.818Z,35.33
2019-04-07T15:50:52.953Z,36.07
2019-04-07T15:53:22.405Z,36.34
2019-04-07T15:56:01.796Z,36.17
2019-04-07T15:58:26.784Z,36.44
2019-04-07T16:00:54.853Z,36.80
2019-04-07T16:03:24.690Z,36.96
2019-04-07T16:05:54.536Z,37.60
2019-04-07T16:08:26.022Z,37.92
2019-04-07T16:10:55.755Z,37.12
2019-04-07T16:13:26.647Z,36.31
2019-04-07T16:15:56.292Z,35.56
2019-04-07T16:18:26.340Z,35.52
2019-04-07T16:20:56.376Z,35.33
2019-04-07T16:23:26.227Z,35.27
2019-04-07T16:25:58.417Z,35.89
2019-04-07T16:28:27.385Z,36.91
2019-04-07T16:30:56.988Z,37.79
2019-04-07T16:33:27.203Z,37.95
2019-04-07T16:35:56.688Z,38.24
2019-04-07T16:38:28.354Z,38.56
2019-04-07T16:40:57.263Z,38.93
2019-04-07T16:43:30.587Z,39.08
2019-04-07T16:45:58.291Z,39.14
2019-04-07T16:48:28.322Z,39.92
2019-04-07T16:50:57.976Z,40.03
2019-04-07T16:53:28.092Z,39.94
2019-04-07T16:55:58.776Z,40.04
2019-04-07T16:58:30.598Z,39.64
2019-04-07T17:01:00.051Z,39.93
2019-04-07T17:03:29.562Z,40.01
2019-04-07T17:06:01.478Z,40.30
2019-04-07T17:08:30.278Z,40.67
2019-04-07T17:11:05.215Z,40.82
2019-04-07T17:13:38.790Z,39.71
2019-04-07T17:16:02.798Z,39.86
2019-04-07T17:18:39.437Z,40.09
2019-04-07T17:21:20.404Z,40.09
2019-04-07T17:23:53.158Z,40.69
2019-04-07T17:26:23.549Z,41.19
2019-04-07T17:28:53.112Z,41.35
2019-04-07T17:31:23.984Z,41.80
2019-04-07T17:33:53.997Z,42.36
2019-04-07T17:36:25.269Z,42.49
2019-04-07T17:39:13.228Z,43.64
2019-04-07T17:41:43.528Z,43.88
2019-04-07T17:44:39.134Z,44.34
2019-04-07T17:47:36.456Z,44.97
2019-04-07T17:50:23.526Z,45.29
2019-04-07T17:53:05.311Z,44.96
2019-04-07T17:55:48.812Z,45.86
2019-04-07T17:58:32.340Z,45.96
2019-04-07T18:01:23.531Z,46.25
2019-04-07T18:04:15.561Z,46.22
2019-04-07T18:07:21.912Z,46.45
2019-04-07T18:09:59.541Z,46.44
2019-04-07T18:12:51.509Z,46.90
2019-04-07T18:15:46.697Z,46.83
2019-04-07T18:18:35.201Z,46.47
2019-04-07T18:21:23.536Z,46.88
2019-04-07T18:24:06.112Z,47.06
2019-04-07T18:26:42.408Z,47.51
2019-04-07T18:29:38.388Z,47.59
2019-04-07T18:32:36.260Z,47.70
2019-04-07T18:35:30.822Z,48.14
2019-04-07T18:38:34.083Z,48.36
2019-04-07T18:41:34.073Z,48.40
2019-04-07T18:44:25.160Z,48.76
2019-04-07T18:47:14.935Z,48.81
2019-04-07T18:50:20.600Z,48.92
2019-04-07T18:52:57.510Z,49.43
2019-04-07T18:55:55.756Z,49.41
2019-04-07T18:58:42.707Z,49.43
2019-04-07T19:01:30.439Z,49.41
2019-04-07T19:04:31.575Z,49.60
2019-04-07T19:07:13.071Z,49.48
2019-04-07T19:09:51.891Z,49.51
2019-04-07T19:12:38.556Z,49.48
2019-04-07T19:15:24.047Z,49.75
2019-04-07T19:18:31.112Z,50.14
2019-04-07T19:21:18.364Z,50.25
2019-04-07T19:24:16.415Z,50.48
2019-04-07T19:26:56.245Z,50.52
2019-04-07T19:29:48.797Z,50.69
2019-04-07T19:32:36.876Z,50.67
2019-04-07T19:35:19.498Z,50.80
2019-04-07T19:38:06.858Z,51.44
2019-04-07T19:41:13.744Z,51.77
2019-04-07T19:44:07.964Z,51.73
2019-04-07T19:47:03.101Z,51.76
2019-04-07T19:50:00.688Z,51.90
2019-04-07T19:52:49.860Z,52.51
2019-04-07T19:55:28.276Z,52.92
2019-04-07T19:58:09.787Z,52.83
2019-04-07T20:01:01.751Z,53.10
2019-04-07T20:03:56.459Z,53.13
2019-04-07T20:06:44.131Z,53.18
2019-04-07T20:09:23.588Z,53.21
2019-04-07T20:12:12.786Z,53.32
2019-04-07T20:15:05.578Z,53.86
2019-04-07T20:17:53.380Z,53.97
2019-04-07T20:20:53.694Z,54.20
2019-04-07T20:23:41.515Z,54.25
2019-04-07T20:26:45.179Z,54.01
2019-04-07T20:29:41.391Z,54.18
2019-04-07T20:32:26.251Z,54.19
2019-04-07T20:35:20.992Z,54.32
2019-04-07T20:38:21.495Z,54.45
2019-04-07T20:41:00.730Z,54.91
2019-04-07T20:43:40.544Z,55.22
2019-04-07T20:46:38.262Z,55.13
2019-04-07T20:49:26.424Z,54.76
2019-04-07T20:52:15.652Z,54.91
2019-04-07T20:55:08.410Z,55.14
2019-04-07T20:58:16.949Z,54.24
2019-04-07T21:00:58.559Z,54.36
2019-04-07T21:03:45.055Z,54.08
2019-04-07T21:06:31.741Z,54.08
2019-04-07T21:09:31.618Z,53.87
2019-04-07T21:12:12.761Z,54.01
2019-04-07T21:15:16.192Z,53.88
2019-04-07T21:17:50.245Z,53.51
2019-04-07T21:20:39.043Z,53.55
2019-04-07T21:23:36.141Z,53.50
2019-04-07T21:26:24.506Z,53.69
2019-04-07T21:29:11.560Z,53.57
2019-04-07T21:32:03.542Z,53.34
2019-04-07T21:34:53.556Z,52.66
2019-04-07T21:37:51.934Z,52.54
2019-04-07T21:40:42.303Z,53.13
2019-04-07T21:43:36.718Z,53.43
2019-04-07T21:46:43.591Z,53.70
2019-04-07T21:49:20.546Z,54.29
2019-04-07T21:52:00.863Z,54.47
2019-04-07T21:54:51.724Z,55.04
2019-04-07T21:57:53.610Z,54.95
2019-04-07T22:00:37.601Z,55.72
2019-04-07T22:03:24.941Z,54.95
2019-04-07T22:06:19.441Z,54.78
2019-04-07T22:09:06.921Z,55.03
2019-04-07T22:11:36.753Z,54.92
2019-04-07T22:14:07.716Z,55.26
2019-04-07T22:16:37.339Z,55.03
2019-04-07T22:19:10.613Z,54.99
2019-04-07T22:21:38.261Z,55.20
2019-04-07T22:24:07.712Z,55.16
2019-04-07T22:26:37.158Z,55.32
2019-04-07T22:29:07.662Z,55.44
2019-04-07T22:31:46.618Z,55.48
2019-04-07T22:34:16.607Z,55.99
2019-04-07T22:36:47.919Z,55.92
2019-04-07T22:39:17.078Z,56.08
2019-04-07T22:41:46.458Z,55.81
2019-04-07T22:44:19.942Z,56.23
2019-04-07T22:46:49.536Z,56.42
2019-04-07T22:49:18.121Z,56.55
2019-04-07T22:51:49.489Z,55.94
2019-04-07T22:54:18.875Z,56.23
2019-04-07T22:56:48.792Z,56.50
2019-04-07T22:59:18.427Z,56.23
2019-04-07T23:01:47.827Z,56.29
2019-04-07T23:04:18.189Z,56.21
2019-04-07T23:06:48.069Z,56.61
2019-04-07T23:09:17.667Z,56.37
2019-04-07T23:11:47.041Z,55.97
2019-04-07T23:14:16.422Z,55.92
2019-04-07T23:16:46.449Z,56.39
2019-04-07T23:19:16.474Z,56.55
2019-04-07T23:21:46.044Z,56.63
2019-04-07T23:24:15.596Z,56.34
2019-04-07T23:26:45.016Z,56.22
2019-04-07T23:29:14.487Z,56.62
2019-04-07T23:31:44.150Z,56.75
2019-04-07T23:34:13.509Z,56.77
2019-04-07T23:36:43.622Z,56.80
2019-04-07T23:39:13.146Z,57.17
2019-04-07T23:41:43.486Z,57.09
2019-04-07T23:44:13.044Z,57.21
2019-04-07T23:46:43.468Z,57.14
2019-04-07T23:49:13.142Z,55.69
2019-04-07T23:51:43.467Z,55.97
2019-04-07T23:54:14.518Z,56.30
2019-04-07T23:56:45.054Z,56.99
2019-04-07T23:59:14.793Z,57.34
